sensor_id;sensor_type;location;lat;lon;timestamp;pressure;altitude;pressure_sealevel;temperature;humidity
15314;BME280;7757;52.626;4.746;2023-05-01T00:02:04;101717.78;;;18.48;56.00
15314;BME280;7757;52.626;4.746;2023-05-01T00:04:51;101723.66;;;18.52;56.17
15314;BME280;7757;52.626;4.746;2023-05-01T00:07:36;101703.66;;;18.46;55.92
15314;BME280;7757;52.626;4.746;2023-05-01T00:10:22;101707.41;;;18.45;56.01
15314;BME280;7757;52.626;4.746;2023-05-01T00:13:07;101714.28;;;18.48;55.93
15314;BME280;7757;52.626;4.746;2023-05-01T00:15:53;101701.59;;;18.42;56.21
15314;BME280;7757;52.626;4.746;2023-05-01T00:18:38;101706.19;;;18.41;56.42
15314;BME280;7757;52.626;4.746;2023-05-01T00:21:25;101699.91;;;18.47;56.08
15314;BME280;7757;52.626;4.746;2023-05-01T00:24:11;101682.25;;;18.38;55.92
15314;BME280;7757;52.626;4.746;2023-05-01T00:26:57;101693.50;;;18.35;56.19
15314;BME280;7757;52.626;4.746;2023-05-01T00:29:42;101681.22;;;18.32;56.09
15314;BME280;7757;52.626;4.746;2023-05-01T00:32:28;101688.91;;;18.35;55.85
15314;BME280;7757;52.626;4.746;2023-05-01T00:35:13;101684.13;;;18.31;56.36
15314;BME280;7757;52.626;4.746;2023-05-01T00:38:01;101684.13;;;18.31;56.44
15314;BME280;7757;52.626;4.746;2023-05-01T00:40:46;101678.94;;;18.36;56.47
15314;BME280;7757;52.626;4.746;2023-05-01T00:43:31;101677.84;;;18.37;56.27
15314;BME280;7757;52.626;4.746;2023-05-01T00:46:17;101677.44;;;18.33;55.90
15314;BME280;7757;52.626;4.746;2023-05-01T00:49:03;101672.44;;;18.37;55.93
15314;BME280;7757;52.626;4.746;2023-05-01T00:51:50;101667.28;;;18.29;56.29
15314;BME280;7757;52.626;4.746;2023-05-01T00:54:38;101668.38;;;18.21;56.43
15314;BME280;7757;52.626;4.746;2023-05-01T00:57:23;101659.63;;;18.19;56.62
15314;BME280;7757;52.626;4.746;2023-05-01T01:00:11;101658.41;;;18.15;56.33
15314;BME280;7757;52.626;4.746;2023-05-01T01:02:57;101651.06;;;18.22;56.49
15314;BME280;7757;52.626;4.746;2023-05-01T01:05:45;101649.41;;;18.21;56.34
15314;BME280;7757;52.626;4.746;2023-05-01T01:08:39;101623.00;;;18.10;56.53
15314;BME280;7757;52.626;4.746;2023-05-01T01:11:33;101635.44;;;18.24;56.28
15314;BME280;7757;52.626;4.746;2023-05-01T01:14:27;101630.03;;;18.24;56.48
15314;BME280;7757;52.626;4.746;2023-05-01T01:17:36;101627.78;;;18.15;56.42
15314;BME280;7757;52.626;4.746;2023-05-01T01:20:35;101624.00;;;18.16;56.62
15314;BME280;7757;52.626;4.746;2023-05-01T01:27:06;101618.38;;;18.24;56.22
15314;BME280;7757;52.626;4.746;2023-05-01T01:30:11;101614.81;;;18.23;56.38
15314;BME280;7757;52.626;4.746;2023-05-01T01:36:19;101599.63;;;18.22;55.70
15314;BME280;7757;52.626;4.746;2023-05-01T01:39:10;101564.53;;;18.03;56.37
15314;BME280;7757;52.626;4.746;2023-05-01T01:41:57;101575.91;;;18.18;56.41
15314;BME280;7757;52.626;4.746;2023-05-01T01:44:48;101564.06;;;18.12;56.28
15314;BME280;7757;52.626;4.746;2023-05-01T01:47:39;101574.47;;;18.15;56.33
15314;BME280;7757;52.626;4.746;2023-05-01T01:50:26;101574.41;;;18.22;56.15
15314;BME280;7757;52.626;4.746;2023-05-01T01:53:16;101574.41;;;18.22;56.27
15314;BME280;7757;52.626;4.746;2023-05-01T01:56:03;101565.47;;;18.21;56.23
15314;BME280;7757;52.626;4.746;2023-05-01T01:58:51;101566.53;;;18.20;56.15
15314;BME280;7757;52.626;4.746;2023-05-01T02:01:38;101571.34;;;18.18;56.19
15314;BME280;7757;52.626;4.746;2023-05-01T02:04:26;101561.97;;;18.14;55.92
15314;BME280;7757;52.626;4.746;2023-05-01T02:07:12;101565.91;;;18.18;56.01
15314;BME280;7757;52.626;4.746;2023-05-01T02:10:01;101561.53;;;18.17;56.02
15314;BME280;7757;52.626;4.746;2023-05-01T02:12:50;101542.09;;;17.96;56.07
15314;BME280;7757;52.626;4.746;2023-05-01T02:15:37;101553.06;;;18.07;56.18
15314;BME280;7757;52.626;4.746;2023-05-01T02:18:22;101555.13;;;18.12;56.29
15314;BME280;7757;52.626;4.746;2023-05-01T02:21:10;101550.53;;;18.12;56.56
15314;BME280;7757;52.626;4.746;2023-05-01T02:23:58;101541.47;;;17.94;56.36
15314;BME280;7757;52.626;4.746;2023-05-01T02:26:48;101534.94;;;18.08;55.83
15314;BME280;7757;52.626;4.746;2023-05-01T02:29:34;101532.41;;;18.13;56.08
15314;BME280;7757;52.626;4.746;2023-05-01T02:32:19;101539.31;;;18.09;55.80
15314;BME280;7757;52.626;4.746;2023-05-01T02:35:05;101527.03;;;18.06;55.97
15314;BME280;7757;52.626;4.746;2023-05-01T02:37:50;101532.81;;;18.10;55.96
15314;BME280;7757;52.626;4.746;2023-05-01T02:40:37;101526.81;;;18.08;56.10
15314;BME280;7757;52.626;4.746;2023-05-01T02:43:25;101516.03;;;18.01;56.00
15314;BME280;7757;52.626;4.746;2023-05-01T02:46:15;101520.78;;;18.06;55.85
15314;BME280;7757;52.626;4.746;2023-05-01T02:49:02;101498.88;;;17.82;56.00
15314;BME280;7757;52.626;4.746;2023-05-01T02:51:49;101509.84;;;17.94;56.23
15314;BME280;7757;52.626;4.746;2023-05-01T02:54:34;101504.16;;;18.02;55.96
15314;BME280;7757;52.626;4.746;2023-05-01T02:57:20;101496.63;;;18.04;55.97
15314;BME280;7757;52.626;4.746;2023-05-01T03:00:08;101495.44;;;18.00;56.08
15314;BME280;7757;52.626;4.746;2023-05-01T03:02:56;101495.25;;;17.95;56.45
15314;BME280;7757;52.626;4.746;2023-05-01T03:05:42;101485.91;;;17.91;55.75
15314;BME280;7757;52.626;4.746;2023-05-01T03:08:27;101476.47;;;17.69;56.20
15314;BME280;7757;52.626;4.746;2023-05-01T03:11:12;101491.00;;;17.74;56.29
15314;BME280;7757;52.626;4.746;2023-05-01T03:13:58;101490.91;;;17.94;55.72
15314;BME280;7757;52.626;4.746;2023-05-01T03:16:45;101489.22;;;17.93;55.97
15314;BME280;7757;52.626;4.746;2023-05-01T03:19:30;101474.25;;;17.91;55.76
15314;BME280;7757;52.626;4.746;2023-05-01T03:22:17;101485.91;;;17.91;55.88
15314;BME280;7757;52.626;4.746;2023-05-01T03:25:02;101471.81;;;17.82;55.83
15314;BME280;7757;52.626;4.746;2023-05-01T03:27:48;101483.38;;;17.96;55.93
15314;BME280;7757;52.626;4.746;2023-05-01T03:30:34;101476.53;;;17.94;55.77
15314;BME280;7757;52.626;4.746;2023-05-01T03:33:21;101460.13;;;17.89;55.67
15314;BME280;7757;52.626;4.746;2023-05-01T03:36:06;101448.91;;;17.85;55.99
15314;BME280;7757;52.626;4.746;2023-05-01T03:38:52;101470.28;;;17.93;55.73
15314;BME280;7757;52.626;4.746;2023-05-01T03:41:38;101467.81;;;17.92;55.99
15314;BME280;7757;52.626;4.746;2023-05-01T03:44:23;101448.50;;;17.81;55.67
15314;BME280;7757;52.626;4.746;2023-05-01T03:47:08;101452.59;;;17.91;55.75
15314;BME280;7757;52.626;4.746;2023-05-01T03:49:55;101453.66;;;17.90;55.44
15314;BME280;7757;52.626;4.746;2023-05-01T03:52:40;101458.63;;;17.93;55.75
15314;BME280;7757;52.626;4.746;2023-05-01T03:55:26;101448.66;;;17.87;55.73
15314;BME280;7757;52.626;4.746;2023-05-01T03:58:11;101457.19;;;17.90;55.59
15314;BME280;7757;52.626;4.746;2023-05-01T04:00:57;101458.44;;;17.88;55.79
15314;BME280;7757;52.626;4.746;2023-05-01T04:03:43;101451.16;;;17.88;55.60
15314;BME280;7757;52.626;4.746;2023-05-01T04:06:30;101445.97;;;17.87;55.77
15314;BME280;7757;52.626;4.746;2023-05-01T04:09:16;101457.63;;;17.87;55.55
15314;BME280;7757;52.626;4.746;2023-05-01T04:12:02;101451.38;;;17.87;55.38
15314;BME280;7757;52.626;4.746;2023-05-01T04:14:48;101448.66;;;17.87;55.50
15314;BME280;7757;52.626;4.746;2023-05-01T04:17:34;101450.56;;;17.86;55.52
15314;BME280;7757;52.626;4.746;2023-05-01T04:20:19;101445.34;;;17.84;55.56
15314;BME280;7757;52.626;4.746;2023-05-01T04:23:06;101450.09;;;17.89;55.42
15314;BME280;7757;52.626;4.746;2023-05-01T04:25:52;101442.22;;;17.88;55.17
15314;BME280;7757;52.626;4.746;2023-05-01T04:28:37;101453.03;;;17.88;55.22
15314;BME280;7757;52.626;4.746;2023-05-01T04:31:23;101431.44;;;17.81;55.04
15314;BME280;7757;52.626;4.746;2023-05-01T04:34:08;101446.16;;;17.92;55.03
15314;BME280;7757;52.626;4.746;2023-05-01T04:36:54;101446.34;;;17.90;54.86
15314;BME280;7757;52.626;4.746;2023-05-01T04:39:42;101443.22;;;17.93;55.04
15314;BME280;7757;52.626;4.746;2023-05-01T04:42:29;101433.25;;;17.87;54.77
15314;BME280;7757;52.626;4.746;2023-05-01T04:45:15;101447.34;;;17.96;54.88
15314;BME280;7757;52.626;4.746;2023-05-01T04:48:00;101448.19;;;17.96;54.84
15314;BME280;7757;52.626;4.746;2023-05-01T04:50:45;101436.31;;;17.97;54.55
15314;BME280;7757;52.626;4.746;2023-05-01T04:53:31;101439.47;;;17.94;54.82
15314;BME280;7757;52.626;4.746;2023-05-01T04:56:17;101431.13;;;17.96;54.66
15314;BME280;7757;52.626;4.746;2023-05-01T04:59:03;101428.16;;;18.04;54.60
15314;BME280;7757;52.626;4.746;2023-05-01T05:01:48;101420.47;;;18.01;54.61
15314;BME280;7757;52.626;4.746;2023-05-01T05:04:34;101421.34;;;17.95;54.38
15314;BME280;7757;52.626;4.746;2023-05-01T05:07:19;101416.88;;;17.82;54.78
15314;BME280;7757;52.626;4.746;2023-05-01T05:10:05;101432.13;;;18.01;54.32
15314;BME280;7757;52.626;4.746;2023-05-01T05:12:52;101436.56;;;18.20;54.17
15314;BME280;7757;52.626;4.746;2023-05-01T05:15:37;101434.28;;;18.17;54.32
15314;BME280;7757;52.626;4.746;2023-05-01T05:18:22;101436.84;;;18.30;53.99
15314;BME280;7757;52.626;4.746;2023-05-01T05:21:08;101428.00;;;18.23;54.33
15314;BME280;7757;52.626;4.746;2023-05-01T05:23:54;101417.84;;;17.88;55.51
15314;BME280;7757;52.626;4.746;2023-05-01T05:26:39;101428.28;;;17.84;55.41
15314;BME280;7757;52.626;4.746;2023-05-01T05:29:26;101430.78;;;18.10;54.99
15314;BME280;7757;52.626;4.746;2023-05-01T05:32:11;101431.13;;;18.20;54.08
15314;BME280;7757;52.626;4.746;2023-05-01T05:34:57;101435.31;;;18.16;54.92
15314;BME280;7757;52.626;4.746;2023-05-01T05:37:43;101434.94;;;18.37;54.26
15314;BME280;7757;52.626;4.746;2023-05-01T05:40:28;101443.94;;;18.31;54.22
15314;BME280;7757;52.626;4.746;2023-05-01T05:43:13;101424.16;;;18.56;53.63
15314;BME280;7757;52.626;4.746;2023-05-01T05:46:00;101434.78;;;18.32;53.98
15314;BME280;7757;52.626;4.746;2023-05-01T05:48:45;101437.97;;;18.23;54.24
15314;BME280;7757;52.626;4.746;2023-05-01T05:51:31;101428.59;;;18.25;53.97
15314;BME280;7757;52.626;4.746;2023-05-01T05:54:16;101434.13;;;18.80;52.84
15314;BME280;7757;52.626;4.746;2023-05-01T05:57:02;101427.03;;;18.79;52.03
15314;BME280;7757;52.626;4.746;2023-05-01T05:59:47;101419.22;;;18.71;53.35
15314;BME280;7757;52.626;4.746;2023-05-01T06:02:34;101421.25;;;18.93;53.15
15314;BME280;7757;52.626;4.746;2023-05-01T06:05:19;101416.84;;;19.29;52.12
15314;BME280;7757;52.626;4.746;2023-05-01T06:08:05;101412.50;;;19.10;52.33
15314;BME280;7757;52.626;4.746;2023-05-01T06:10:50;101416.25;;;19.27;51.80
15314;BME280;7757;52.626;4.746;2023-05-01T06:13:35;101413.06;;;19.30;51.68
15314;BME280;7757;52.626;4.746;2023-05-01T06:16:21;101410.81;;;19.27;51.72
15314;BME280;7757;52.626;4.746;2023-05-01T06:19:08;101413.31;;;19.10;51.86
15314;BME280;7757;52.626;4.746;2023-05-01T06:21:56;101414.41;;;18.91;52.98
15314;BME280;7757;52.626;4.746;2023-05-01T06:24:42;101408.72;;;19.11;52.21
15314;BME280;7757;52.626;4.746;2023-05-01T06:27:28;101404.28;;;17.94;54.01
15314;BME280;7757;52.626;4.746;2023-05-01T06:30:13;101416.25;;;18.54;53.72
15314;BME280;7757;52.626;4.746;2023-05-01T06:32:59;101418.84;;;18.85;52.80
15314;BME280;7757;52.626;4.746;2023-05-01T06:35:45;101417.09;;;18.91;53.14
15314;BME280;7757;52.626;4.746;2023-05-01T06:38:31;101415.22;;;18.91;52.05
15314;BME280;7757;52.626;4.746;2023-05-01T06:41:17;101413.63;;;19.02;52.52
15314;BME280;7757;52.626;4.746;2023-05-01T06:44:02;101401.16;;;19.01;52.55
15314;BME280;7757;52.626;4.746;2023-05-01T06:46:47;101414.78;;;19.13;52.48
15314;BME280;7757;52.626;4.746;2023-05-01T06:49:34;101416.25;;;19.27;52.07
15314;BME280;7757;52.626;4.746;2023-05-01T06:52:14;101379.59;;;19.06;52.63
15314;BME280;7757;52.626;4.746;2023-05-01T06:54:59;101410.44;;;19.23;52.36
15314;BME280;7757;52.626;4.746;2023-05-01T06:57:44;101408.72;;;19.11;52.75
15314;BME280;7757;52.626;4.746;2023-05-01T07:00:30;101393.59;;;19.21;52.55
15314;BME280;7757;52.626;4.746;2023-05-01T07:03:15;101404.19;;;19.23;52.56
15314;BME280;7757;52.626;4.746;2023-05-01T07:06:01;101402.09;;;19.25;52.44
15314;BME280;7757;52.626;4.746;2023-05-01T07:08:47;101397.75;;;19.06;53.23
15314;BME280;7757;52.626;4.746;2023-05-01T07:11:34;101406.81;;;19.29;52.45
15314;BME280;7757;52.626;4.746;2023-05-01T07:14:20;101402.81;;;19.32;52.54
15314;BME280;7757;52.626;4.746;2023-05-01T07:17:05;101401.81;;;19.15;52.67
15314;BME280;7757;52.626;4.746;2023-05-01T07:19:52;101407.97;;;19.22;52.53
15314;BME280;7757;52.626;4.746;2023-05-01T07:22:37;101406.19;;;19.16;52.89
15314;BME280;7757;52.626;4.746;2023-05-01T07:25:24;101414.31;;;19.16;52.58
15314;BME280;7757;52.626;4.746;2023-05-01T07:28:09;101402.84;;;19.14;52.94
15314;BME280;7757;52.626;4.746;2023-05-01T07:30:54;101404.72;;;19.13;52.74
15314;BME280;7757;52.626;4.746;2023-05-01T07:33:40;101409.56;;;19.11;52.88
15314;BME280;7757;52.626;4.746;2023-05-01T07:39:00;101407.66;;;19.30;53.14
15314;BME280;7757;52.626;4.746;2023-05-01T07:41:46;101409.06;;;19.51;52.88
15314;BME280;7757;52.626;4.746;2023-05-01T07:44:32;101402.47;;;19.58;53.11
15314;BME280;7757;52.626;4.746;2023-05-01T07:47:17;101406.50;;;19.67;52.65
15314;BME280;7757;52.626;4.746;2023-05-01T07:50:03;101400.53;;;19.77;52.77
15314;BME280;7757;52.626;4.746;2023-05-01T07:52:49;101403.00;;;19.78;53.29
15314;BME280;7757;52.626;4.746;2023-05-01T07:55:34;101399.25;;;19.91;52.97
15314;BME280;7757;52.626;4.746;2023-05-01T07:58:21;101402.69;;;19.98;52.95
15314;BME280;7757;52.626;4.746;2023-05-01T08:01:23;101352.41;;;19.84;52.87
15314;BME280;7757;52.626;4.746;2023-05-01T08:04:08;101383.69;;;20.10;52.92
15314;BME280;7757;52.626;4.746;2023-05-01T08:06:53;101337.28;;;19.88;52.85
15314;BME280;7757;52.626;4.746;2023-05-01T08:09:39;101384.94;;;20.25;52.79
15314;BME280;7757;52.626;4.746;2023-05-01T08:12:24;101405.72;;;20.43;52.47
15314;BME280;7757;52.626;4.746;2023-05-01T08:15:11;101407.94;;;20.57;53.07
15314;BME280;7757;52.626;4.746;2023-05-01T08:17:56;101417.72;;;20.58;52.49
15314;BME280;7757;52.626;4.746;2023-05-01T08:20:41;101419.50;;;20.65;53.09
15314;BME280;7757;52.626;4.746;2023-05-01T08:23:26;101421.16;;;20.66;52.53
15314;BME280;7757;52.626;4.746;2023-05-01T08:26:12;101420.44;;;20.70;52.76
15314;BME280;7757;52.626;4.746;2023-05-01T08:28:57;101428.56;;;20.82;52.77
15314;BME280;7757;52.626;4.746;2023-05-01T08:31:44;101419.63;;;20.81;52.38
15314;BME280;7757;52.626;4.746;2023-05-01T08:34:29;101432.09;;;20.94;52.74
15314;BME280;7757;52.626;4.746;2023-05-01T08:37:15;101421.09;;;21.00;52.29
15314;BME280;7757;52.626;4.746;2023-05-01T08:40:02;101433.03;;;21.11;52.38
15314;BME280;7757;52.626;4.746;2023-05-01T08:42:51;101419.69;;;21.09;52.51
15314;BME280;7757;52.626;4.746;2023-05-01T08:45:38;101435.41;;;21.19;52.25
15314;BME280;7757;52.626;4.746;2023-05-01T08:48:27;101428.22;;;21.13;52.40
15314;BME280;7757;52.626;4.746;2023-05-01T08:51:14;101434.09;;;21.22;51.70
15314;BME280;7757;52.626;4.746;2023-05-01T08:54:04;101435.50;;;21.24;51.79
15314;BME280;7757;52.626;4.746;2023-05-01T08:56:52;101435.84;;;21.28;51.93
15314;BME280;7757;52.626;4.746;2023-05-01T08:59:39;101432.94;;;20.94;50.40
15314;BME280;7757;52.626;4.746;2023-05-01T09:02:26;101431.78;;;20.79;50.65
15314;BME280;7757;52.626;4.746;2023-05-01T09:05:14;101439.78;;;21.08;51.15
15314;BME280;7757;52.626;4.746;2023-05-01T09:08:00;101444.88;;;20.93;50.38
15314;BME280;7757;52.626;4.746;2023-05-01T09:10:47;101437.69;;;21.10;50.44
15314;BME280;7757;52.626;4.746;2023-05-01T09:13:32;101431.16;;;21.11;50.53
15314;BME280;7757;52.626;4.746;2023-05-01T09:16:19;101437.03;;;21.20;50.39
15314;BME280;7757;52.626;4.746;2023-05-01T09:19:05;101439.53;;;21.22;51.15
15314;BME280;7757;52.626;4.746;2023-05-01T09:21:52;101439.41;;;21.28;50.45
15314;BME280;7757;52.626;4.746;2023-05-01T09:24:37;101433.47;;;21.31;50.63
15314;BME280;7757;52.626;4.746;2023-05-01T09:27:24;101429.44;;;21.34;50.85
15314;BME280;7757;52.626;4.746;2023-05-01T09:30:28;101440.41;;;21.39;50.48
15314;BME280;7757;52.626;4.746;2023-05-01T09:33:14;101436.63;;;21.40;50.65
15314;BME280;7757;52.626;4.746;2023-05-01T09:36:00;101434.84;;;21.45;50.08
15314;BME280;7757;52.626;4.746;2023-05-01T09:38:50;101433.25;;;21.49;50.08
15314;BME280;7757;52.626;4.746;2023-05-01T09:41:49;101432.88;;;21.57;50.40
15314;BME280;7757;52.626;4.746;2023-05-01T09:44:43;101434.78;;;21.57;50.08
15314;BME280;7757;52.626;4.746;2023-05-01T09:47:29;101433.22;;;21.61;49.91
15314;BME280;7757;52.626;4.746;2023-05-01T09:50:28;101427.03;;;21.65;49.97
15314;BME280;7757;52.626;4.746;2023-05-01T09:53:14;101438.84;;;21.71;50.19
15314;BME280;7757;52.626;4.746;2023-05-01T09:56:01;101447.44;;;21.80;49.37
15314;BME280;7757;52.626;4.746;2023-05-01T09:58:46;101442.81;;;21.80;49.75
15314;BME280;7757;52.626;4.746;2023-05-01T10:01:39;101443.16;;;21.84;49.69
15314;BME280;7757;52.626;4.746;2023-05-01T10:04:29;101448.00;;;21.93;50.04
15314;BME280;7757;52.626;4.746;2023-05-01T10:07:14;101458.41;;;21.96;49.39
15314;BME280;7757;52.626;4.746;2023-05-01T10:10:14;101451.88;;;21.97;48.88
15314;BME280;7757;52.626;4.746;2023-05-01T10:13:13;101449.81;;;22.04;48.71
15314;BME280;7757;52.626;4.746;2023-05-01T10:15:58;101448.50;;;22.07;49.04
15314;BME280;7757;52.626;4.746;2023-05-01T10:18:46;101441.16;;;22.07;48.22
15314;BME280;7757;52.626;4.746;2023-05-01T10:21:32;101443.47;;;22.15;48.61
15314;BME280;7757;52.626;4.746;2023-05-01T10:24:17;101445.22;;;22.21;48.25
15314;BME280;7757;52.626;4.746;2023-05-01T10:27:04;101451.72;;;22.20;48.30
15314;BME280;7757;52.626;4.746;2023-05-01T10:29:52;101458.91;;;22.27;48.46
15314;BME280;7757;52.626;4.746;2023-05-01T10:32:39;101449.25;;;22.19;47.97
15314;BME280;7757;52.626;4.746;2023-05-01T10:35:28;101462.13;;;22.23;47.84
15314;BME280;7757;52.626;4.746;2023-05-01T10:38:21;101458.66;;;22.28;47.89
15314;BME280;7757;52.626;4.746;2023-05-01T10:41:07;101455.19;;;22.33;47.81
15314;BME280;7757;52.626;4.746;2023-05-01T10:44:18;101453.63;;;22.37;48.16
15314;BME280;7757;52.626;4.746;2023-05-01T10:50:28;101456.16;;;22.60;48.10
15314;BME280;7757;52.626;4.746;2023-05-01T10:53:17;101463.09;;;22.67;47.38
15314;BME280;7757;52.626;4.746;2023-05-01T10:56:03;101448.31;;;22.63;47.03
15314;BME280;7757;52.626;4.746;2023-05-01T10:58:57;101452.28;;;22.56;47.84
15314;BME280;7757;52.626;4.746;2023-05-01T11:01:43;101459.94;;;22.59;47.17
15314;BME280;7757;52.626;4.746;2023-05-01T11:04:49;101436.72;;;22.35;47.59
15314;BME280;7757;52.626;4.746;2023-05-01T11:07:38;101453.38;;;22.55;47.87
15314;BME280;7757;52.626;4.746;2023-05-01T11:10:25;101456.09;;;22.38;47.80
15314;BME280;7757;52.626;4.746;2023-05-01T11:13:11;101462.88;;;22.36;47.63
15314;BME280;7757;52.626;4.746;2023-05-01T11:15:56;101463.28;;;22.28;47.03
15314;BME280;7757;52.626;4.746;2023-05-01T11:18:45;101455.88;;;22.23;47.41
15314;BME280;7757;52.626;4.746;2023-05-01T11:21:31;101457.00;;;22.27;46.85
15314;BME280;7757;52.626;4.746;2023-05-01T11:24:18;101456.94;;;22.22;47.02
15314;BME280;7757;52.626;4.746;2023-05-01T11:27:04;101462.69;;;21.92;47.47
15314;BME280;7757;52.626;4.746;2023-05-01T11:29:50;101454.63;;;22.14;48.14
15314;BME280;7757;52.626;4.746;2023-05-01T11:32:42;101462.22;;;22.45;47.82
15314;BME280;7757;52.626;4.746;2023-05-01T11:35:28;101465.66;;;22.57;47.53
15314;BME280;7757;52.626;4.746;2023-05-01T11:38:16;101458.81;;;22.55;47.51
15314;BME280;7757;52.626;4.746;2023-05-01T11:41:04;101460.00;;;22.26;47.50
15314;BME280;7757;52.626;4.746;2023-05-01T11:43:50;101460.22;;;22.24;47.33
15314;BME280;7757;52.626;4.746;2023-05-01T11:46:36;101462.31;;;22.34;47.72
15314;BME280;7757;52.626;4.746;2023-05-01T11:49:25;101464.03;;;22.40;47.19
15314;BME280;7757;52.626;4.746;2023-05-01T11:52:11;101453.47;;;22.43;46.69
15314;BME280;7757;52.626;4.746;2023-05-01T11:54:56;101452.63;;;21.93;47.33
15314;BME280;7757;52.626;4.746;2023-05-01T11:57:47;101442.47;;;22.21;47.33
15314;BME280;7757;52.626;4.746;2023-05-01T12:00:34;101455.03;;;22.39;47.03
15314;BME280;7757;52.626;4.746;2023-05-01T12:03:21;101451.22;;;21.90;48.17
15314;BME280;7757;52.626;4.746;2023-05-01T12:06:07;101453.72;;;21.80;48.08
15314;BME280;7757;52.626;4.746;2023-05-01T12:08:53;101444.88;;;22.01;48.51
15314;BME280;7757;52.626;4.746;2023-05-01T12:11:39;101446.69;;;22.29;48.66
15314;BME280;7757;52.626;4.746;2023-05-01T12:14:25;101453.38;;;22.38;48.19
15314;BME280;7757;52.626;4.746;2023-05-01T12:17:11;101445.78;;;22.40;48.25
15314;BME280;7757;52.626;4.746;2023-05-01T12:19:56;101440.97;;;22.47;48.17
15314;BME280;7757;52.626;4.746;2023-05-01T12:22:48;101448.53;;;22.62;48.73
15314;BME280;7757;52.626;4.746;2023-05-01T12:25:34;101443.16;;;22.29;48.78
15314;BME280;7757;52.626;4.746;2023-05-01T12:28:20;101447.03;;;21.99;48.08
15314;BME280;7757;52.626;4.746;2023-05-01T12:31:07;101448.91;;;21.99;48.08
15314;BME280;7757;52.626;4.746;2023-05-01T12:33:53;101448.09;;;22.32;48.82
15314;BME280;7757;52.626;4.746;2023-05-01T12:36:51;101442.06;;;22.46;48.66
15314;BME280;7757;52.626;4.746;2023-05-01T12:39:37;101434.03;;;22.56;48.54
15314;BME280;7757;52.626;4.746;2023-05-01T12:42:25;101442.50;;;22.76;48.03
15314;BME280;7757;52.626;4.746;2023-05-01T12:45:10;101448.28;;;22.80;48.39
15314;BME280;7757;52.626;4.746;2023-05-01T12:47:59;101453.91;;;22.90;48.30
15314;BME280;7757;52.626;4.746;2023-05-01T12:50:45;101448.78;;;22.94;48.87
15314;BME280;7757;52.626;4.746;2023-05-01T12:53:31;101449.78;;;22.88;48.77
15314;BME280;7757;52.626;4.746;2023-05-01T12:56:21;101449.78;;;22.88;48.52
15314;BME280;7757;52.626;4.746;2023-05-01T12:59:24;101447.69;;;22.95;49.05
15314;BME280;7757;52.626;4.746;2023-05-01T13:02:11;101450.72;;;22.98;48.29
15314;BME280;7757;52.626;4.746;2023-05-01T13:05:07;101450.59;;;23.10;48.22
15314;BME280;7757;52.626;4.746;2023-05-01T13:07:53;101452.09;;;23.17;47.96
15314;BME280;7757;52.626;4.746;2023-05-01T13:10:38;101447.56;;;23.28;47.87
15314;BME280;7757;52.626;4.746;2023-05-01T13:13:25;101459.19;;;23.40;48.03
15314;BME280;7757;52.626;4.746;2023-05-01T13:16:12;101454.34;;;23.47;47.55
15314;BME280;7757;52.626;4.746;2023-05-01T13:18:57;101452.78;;;23.51;47.26
15314;BME280;7757;52.626;4.746;2023-05-01T13:21:48;101466.44;;;23.51;47.71
15314;BME280;7757;52.626;4.746;2023-05-01T13:24:38;101468.31;;;23.51;47.79
15314;BME280;7757;52.626;4.746;2023-05-01T13:27:24;101468.66;;;23.54;48.00
15314;BME280;7757;52.626;4.746;2023-05-01T13:30:11;101472.22;;;23.55;47.49
15314;BME280;7757;52.626;4.746;2023-05-01T13:32:56;101482.50;;;23.48;47.67
15314;BME280;7757;52.626;4.746;2023-05-01T13:35:41;101467.56;;;23.33;48.05
15314;BME280;7757;52.626;4.746;2023-05-01T13:38:40;101473.38;;;22.99;49.02
15314;BME280;7757;52.626;4.746;2023-05-01T13:41:27;101474.28;;;22.66;48.21
15314;BME280;7757;52.626;4.746;2023-05-01T13:44:13;101485.50;;;22.53;48.10
15314;BME280;7757;52.626;4.746;2023-05-01T13:47:01;101489.88;;;22.54;47.38
15314;BME280;7757;52.626;4.746;2023-05-01T13:49:46;101483.34;;;22.55;48.15
15314;BME280;7757;52.626;4.746;2023-05-01T13:52:31;101482.34;;;22.44;47.41
15314;BME280;7757;52.626;4.746;2023-05-01T13:55:26;101495.50;;;22.47;47.21
15314;BME280;7757;52.626;4.746;2023-05-01T13:58:11;101489.97;;;22.42;47.20
15314;BME280;7757;52.626;4.746;2023-05-01T14:00:56;101489.63;;;22.39;47.96
15314;BME280;7757;52.626;4.746;2023-05-01T14:03:42;101488.38;;;22.30;47.70
15314;BME280;7757;52.626;4.746;2023-05-01T14:06:27;101483.69;;;22.25;47.68
15314;BME280;7757;52.626;4.746;2023-05-01T14:09:16;101490.22;;;22.24;47.90
15314;BME280;7757;52.626;4.746;2023-05-01T14:12:03;101488.72;;;22.16;48.23
15314;BME280;7757;52.626;4.746;2023-05-01T14:14:48;101491.19;;;22.18;47.52
15314;BME280;7757;52.626;4.746;2023-05-01T14:17:37;101490.69;;;22.21;47.65
15314;BME280;7757;52.626;4.746;2023-05-01T14:20:24;101499.22;;;22.24;47.95
15314;BME280;7757;52.626;4.746;2023-05-01T14:23:14;101492.84;;;22.19;47.82
15314;BME280;7757;52.626;4.746;2023-05-01T14:26:00;101487.22;;;22.09;47.75
15314;BME280;7757;52.626;4.746;2023-05-01T14:28:47;101485.72;;;22.01;48.46
15314;BME280;7757;52.626;4.746;2023-05-01T14:31:35;101481.34;;;22.00;47.97
15314;BME280;7757;52.626;4.746;2023-05-01T14:34:27;101492.38;;;21.94;48.24
15314;BME280;7757;52.626;4.746;2023-05-01T14:37:12;101488.25;;;21.91;48.37
15314;BME280;7757;52.626;4.746;2023-05-01T14:39:59;101494.19;;;21.88;48.85
15314;BME280;7757;52.626;4.746;2023-05-01T14:42:45;101497.97;;;21.87;48.36
15314;BME280;7757;52.626;4.746;2023-05-01T14:45:31;101501.53;;;21.88;48.85
15314;BME280;7757;52.626;4.746;2023-05-01T14:48:23;101493.13;;;21.89;48.46
15314;BME280;7757;52.626;4.746;2023-05-01T14:51:18;101493.47;;;21.93;48.13
15314;BME280;7757;52.626;4.746;2023-05-01T14:54:03;101505.69;;;21.90;48.55
15314;BME280;7757;52.626;4.746;2023-05-01T14:56:52;101506.97;;;21.88;49.00
15314;BME280;7757;52.626;4.746;2023-05-01T14:59:40;101509.09;;;21.86;48.82